Bezoek onze andere website:

Template documentation
and downloads

And another site



METAR rapporten vliegvelden

   
EBAW - Antwerp
Gewijzigd: 17-01-2019 13:50
Regenbuien, Regen, Sneeuw, Grotendeels bewolkt  
Regenbuien, Regen, Sneeuw, Grotendeels bewolkt  
   Wind: NW 31.5 km/h
Wind: NW 31.5 km/h
Temperatuur: 3°C
Voelt als: -3°C
Dauwpunt: 1°C
Vochtigheid: 87%
Barometer: 1006 hPa
Bewolking: Grotendeels bewolkt
Zicht: 4 km
Bewolking: Gedeeltelijk bewolkt 1000 ft,
Gedeeltelijk bewolkt 1500 ft,
Grotendeels bewolkt 2200 ft
EBAW 171250Z 32017KT 290V350 4000 SHRASN SCT010 SCT015 BKN022 03/01 Q1006 TEMPO 30020G35KT 2500 SHRAGS BKN008CB
EBLG - Li├Ęge
Gewijzigd: 17-01-2019 13:50
Light Showers, Regen, Grotendeels bewolkt  
Light Showers, Regen, Grotendeels bewolkt  
   Wind: Westen 24.1 km/h
Wind: Westen 24.1 km/h
Temperatuur: 3°C
Voelt als: -2°C
Dauwpunt: 2°C
Vochtigheid: 93%
Barometer: 1004 hPa
Bewolking: Grotendeels bewolkt
Zicht: meer dan 10 km
Bewolking: Gedeeltelijk bewolkt 800 ft,
Grotendeels bewolkt 1200 ft
EBLG 171250Z 28013KT 260V330 9999 -SHRA SCT008 BKN012 03/02 Q1004 TEMPO 3500 SHRA
EBCV - Mons/Bergen
Gewijzigd: 17-01-2019 13:55
Grotendeels bewolkt  
Grotendeels bewolkt  
   Wind: WNW 24.1 km/h
Wind: WNW 24.1 km/h
Temperatuur: 5°C
Voelt als: 1°C
Dauwpunt: 2°C
Vochtigheid: 81%
Barometer: 1008 hPa
Bewolking: Grotendeels bewolkt
Zicht: meer dan 10 km
Bewolking: Grotendeels bewolkt 1600 ft,
Grotendeels bewolkt 7700 ft,
Grotendeels bewolkt 10000 ft
EBCV 171255Z AUTO 30013KT 9999 BKN016/// BKN077/// BKN100/// 05/02 Q1008 WHT
EHBK - Maastricht
Gewijzigd: 17-01-2019 13:55
Heavy Drizzle, Grotendeels bewolkt  
Heavy Drizzle, Grotendeels bewolkt  
   Wind: Westen 14.8 km/h
Wind: Westen 14.8 km/h
Temperatuur: 4°C
Voelt als: 1°C
Dauwpunt: 3°C
Vochtigheid: 93%
Barometer: 1004 hPa
Bewolking: Grotendeels bewolkt
Zicht: 6 km
Bewolking: Gedeeltelijk bewolkt 600 ft,
Grotendeels bewolkt 700 ft,
Grotendeels bewolkt 900 ft
EHBK 171255Z AUTO 26008KT 200V320 6000 +DZ SCT006 BKN007 BKN009 04/03 Q1004 BECMG BKN020 TEMPO 29015G25KT 7000 SHRA BKN008 SCT015CB
ELLX - Luxemburg
Gewijzigd: 17-01-2019 13:50
Light Showers, Regen, Grotendeels bewolkt  
Light Showers, Regen, Grotendeels bewolkt  
   Wind: WZW 33.3 km/h
Wind: WZW 33.3 km/h
Temperatuur: 3°C
Voelt als: -3°C
Dauwpunt: 2°C
Vochtigheid: 93%
Barometer: 1004 hPa
Bewolking: Grotendeels bewolkt
Zicht: 8 km
Bewolking: Gedeeltelijk bewolkt 600 ft,
Grotendeels bewolkt 800 ft
ELLX 171250Z 24018KT 8000 -SHRA SCT006 BKN008 03/02 Q1004 TEMPO 25015G30KT SHRA BKN006TCU
EBOS - Oostende
Gewijzigd: 17-01-2019 13:50
Gedeeltelijk bewolkt  
Gedeeltelijk bewolkt  
   Wind: NW 38.9 km/h
Wind: NW 38.9 km/h
Temperatuur: 4°C
Voelt als: -2°C
Dauwpunt: -1°C
Vochtigheid: 70%
Barometer: 1008 hPa
Bewolking: Gedeeltelijk bewolkt
Zicht: meer dan 10 km
Bewolking: Gedeeltelijk bewolkt 2200 ft,
Gedeeltelijk bewolkt 4000 ft
EBOS 171250Z 31021KT 9999 SCT022 SCT040 04/M01 Q1008 TEMPO 33022G32KT

Script ontwikkeld door  Saratoga-weather.org Aangepast voor de template door  Weerstation Leuven